Terminal Aerodrome Forecast
Issued by NWS

Home | Current Version | Previous Version | Text Only | Print | Product List | Glossary On
Versions: 1 2 3 4 5 6 7 8 9 10 11 12 13
249
FTPA31 PHFO 271140
TAFHKO
TAF
PHKO 271140Z 2712/2812 13006KT P6SM SCT040
     FM272000 23010KT P6SM SCT035 BKN050
     FM280700 VRB05KT P6SM FEW030 SCT040=

USA.gov is the U.S. government's official web portal to all federal, state and local government web resources and services.